Time;durP1;ratioP1;P1;durP2;ratioP2;P2;SDS_P1;SDS_P2;PMS_P1;PMS_P2;Temp;Humidity;BMP_temperature;BMP_pressure;BME280_temperature;BME280_humidity;BME280_pressure;Samples;Min_cycle;Max_cycle;Signal;HPM_P1;HPM_P2
2023/10/19 00:00:55;;;;;;;3.73;3.30;;;13.30;72.10;;;;;;5079190;28;20505;-89
2023/10/19 00:03:24;;;;;;;3.03;2.60;;;13.30;72.50;;;;;;5076707;28;20846;-89
2023/10/19 00:05:52;;;;;;;3.07;2.77;;;13.30;71.60;;;;;;5074861;28;20481;-91
2023/10/19 00:08:20;;;;;;;2.77;2.30;;;13.30;72.20;;;;;;5086856;28;20474;-89
2023/10/19 00:11:01;;;;;;;4.60;3.50;;;13.30;70.60;;;;;;5081250;28;20425;-88
2023/10/19 00:13:30;;;;;;;2.43;2.23;;;13.40;72.90;;;;;;5069477;28;20460;-90
2023/10/19 00:15:58;;;;;;;2.93;2.50;;;13.40;72.10;;;;;;5088025;28;20457;-89
2023/10/19 00:18:27;;;;;;;3.17;2.87;;;13.30;73.50;;;;;;5087430;28;20491;-91
2023/10/19 00:20:59;;;;;;;4.57;2.90;;;13.30;74.80;;;;;;5083323;28;20431;-90
2023/10/19 00:23:31;;;;;;;3.10;2.83;;;13.30;75.50;;;;;;5078576;28;20471;-89
2023/10/19 00:26:08;;;;;;;4.27;2.23;;;13.30;76.00;;;;;;5077348;28;20500;-88
2023/10/19 00:28:38;;;;;;;2.87;2.37;;;13.30;75.70;;;;;;5085843;28;20457;-89
2023/10/19 00:31:08;;;;;;;3.50;3.20;;;13.30;73.60;;;;;;5079763;28;20427;-90
2023/10/19 00:33:38;;;;;;;3.83;3.27;;;13.30;75.80;;;;;;5077744;28;20459;-89
2023/10/19 00:36:08;;;;;;;4.53;2.97;;;13.30;76.20;;;;;;5084921;28;20452;-93
2023/10/19 00:38:41;;;;;;;3.10;2.73;;;13.30;75.90;;;;;;5073151;28;20477;-88
2023/10/19 00:41:19;;;;;;;2.67;2.40;;;13.30;75.60;;;;;;5094470;28;20425;-88
2023/10/19 00:43:49;;;;;;;5.30;3.00;;;13.30;76.30;;;;;;5062633;28;20493;-90
2023/10/19 00:46:21;;;;;;;2.80;2.60;;;13.30;75.70;;;;;;5083840;28;20458;-90
2023/10/19 00:48:55;;;;;;;3.70;3.23;;;13.30;77.00;;;;;;5076461;28;20469;-87
2023/10/19 00:51:40;;;;;;;3.03;2.40;;;13.30;76.10;;;;;;5069083;28;20433;-91
2023/10/19 00:54:14;;;;;;;4.03;2.93;;;13.30;75.90;;;;;;5062857;28;20477;-88
2023/10/19 00:56:48;;;;;;;2.97;2.67;;;13.30;77.70;;;;;;5082140;28;20426;-91
2023/10/19 00:59:22;;;;;;;1.87;1.70;;;13.30;75.80;;;;;;5076118;28;21238;-87
2023/10/19 01:01:53;;;;;;;2.53;2.27;;;13.30;73.60;;;;;;5078810;28;20487;-90
2023/10/19 01:04:25;;;;;;;2.70;2.50;;;13.30;72.20;;;;;;5078402;28;20484;-89
2023/10/19 01:07:05;;;;;;;2.00;1.80;;;13.30;74.60;;;;;;5074055;28;20433;-89
2023/10/19 01:09:36;;;;;;;3.30;2.20;;;13.40;73.60;;;;;;5078778;28;20507;-89
2023/10/19 01:12:21;;;;;;;1.87;1.60;;;13.40;71.30;;;;;;5084958;28;20486;-89
2023/10/19 01:15:07;;;;;;;2.47;2.27;;;13.40;71.10;;;;;;5076223;28;20515;-90
2023/10/19 01:17:39;;;;;;;2.57;2.37;;;13.40;72.30;;;;;;5066461;28;20443;-90
2023/10/19 01:20:17;;;;;;;2.80;2.03;;;13.40;72.50;;;;;;5080482;28;20496;-89
2023/10/19 01:23:06;;;;;;;3.43;2.10;;;13.40;70.50;;;;;;5072067;28;20450;-88
2023/10/19 01:25:46;;;;;;;1.97;1.77;;;13.40;70.90;;;;;;5073306;28;20445;-88
2023/10/19 01:28:16;;;;;;;3.13;2.13;;;13.40;70.40;;;;;;5077602;28;20457;-89
2023/10/19 01:30:51;;;;;;;2.37;2.03;;;13.40;71.40;;;;;;5081491;28;20958;-89
2023/10/19 01:33:20;;;;;;;2.90;2.60;;;13.40;70.70;;;;;;5067801;28;20498;-87
2023/10/19 01:38:36;;;;;;;1.77;1.67;;;13.40;72.30;;;;;;5075337;28;20855;-88
2023/10/19 01:41:07;;;;;;;2.90;2.10;;;13.40;71.00;;;;;;5085330;28;20444;-90
2023/10/19 01:43:40;;;;;;;2.57;2.20;;;13.40;72.30;;;;;;5078329;28;20976;-86
2023/10/19 01:46:11;;;;;;;2.57;2.00;;;13.40;71.60;;;;;;5067036;28;21001;-86
2023/10/19 01:48:41;;;;;;;2.37;1.93;;;13.40;72.40;;;;;;5066473;28;20479;-89
2023/10/19 01:51:10;;;;;;;1.63;1.53;;;13.40;70.80;;;;;;5078141;28;20428;-88
2023/10/19 01:53:43;;;;;;;2.70;2.00;;;13.40;70.40;;;;;;5077128;28;20866;-87
2023/10/19 01:56:10;;;;;;;3.40;2.50;;;13.40;73.50;;;;;;5073234;28;20475;-88
2023/10/19 01:58:39;;;;;;;2.43;2.20;;;13.40;72.60;;;;;;5079407;28;20472;-90
2023/10/19 02:01:09;;;;;;;3.20;2.53;;;13.40;71.60;;;;;;5076006;28;20541;-92
2023/10/19 02:03:41;;;;;;;3.10;2.10;;;13.40;71.50;;;;;;5085159;28;20836;-90
2023/10/19 02:06:16;;;;;;;2.13;1.93;;;13.40;70.30;;;;;;5089883;28;20458;-91
2023/10/19 02:08:51;;;;;;;2.20;2.00;;;13.40;71.60;;;;;;5087901;28;20456;-90
2023/10/19 02:11:22;;;;;;;1.90;1.70;;;13.40;71.40;;;;;;5073446;28;20462;-92
2023/10/19 02:13:52;;;;;;;1.97;1.80;;;13.40;70.60;;;;;;5074346;28;20831;-92
2023/10/19 02:16:22;;;;;;;5.73;2.10;;;13.40;71.00;;;;;;5077308;28;20458;-93
2023/10/19 02:18:51;;;;;;;2.50;2.20;;;13.40;72.20;;;;;;5075838;28;20461;-93
2023/10/19 02:21:23;;;;;;;2.23;2.03;;;13.40;70.40;;;;;;5094163;28;20929;-93
2023/10/19 02:23:51;;;;;;;2.13;1.47;;;13.40;72.40;;;;;;5079691;28;20549;-94
2023/10/19 02:26:22;;;;;;;2.87;1.57;;;13.40;70.20;;;;;;5079340;28;20442;-88
2023/10/19 02:28:51;;;;;;;3.20;2.03;;;13.40;70.40;;;;;;5083438;28;20502;-91
2023/10/19 02:31:21;;;;;;;2.47;2.13;;;13.40;70.40;;;;;;5075428;28;20438;-89
2023/10/19 02:33:52;;;;;;;2.10;1.40;;;13.40;72.70;;;;;;5082538;28;20461;-88
2023/10/19 02:36:20;;;;;;;2.30;1.57;;;13.40;70.90;;;;;;5075157;28;20473;-90
2023/10/19 02:38:52;;;;;;;2.10;1.90;;;13.40;71.50;;;;;;5080967;28;20460;-91
2023/10/19 02:41:21;;;;;;;2.57;1.70;;;13.40;71.70;;;;;;5075214;28;20518;-88
2023/10/19 02:44:00;;;;;;;2.20;1.60;;;13.40;69.70;;;;;;5076331;28;20550;-89
2023/10/19 02:46:28;;;;;;;2.73;1.70;;;13.40;71.30;;;;;;5082666;28;20430;-90
2023/10/19 02:48:57;;;;;;;1.60;1.50;;;13.40;70.50;;;;;;5084077;28;20454;-88
2023/10/19 02:51:25;;;;;;;1.57;1.47;;;13.40;72.00;;;;;;5071934;28;20441;-88
2023/10/19 02:53:54;;;;;;;2.47;2.10;;;13.40;70.20;;;;;;5078413;28;20529;-90
2023/10/19 02:56:23;;;;;;;1.90;1.53;;;13.40;71.00;;;;;;5088525;28;20533;-87
2023/10/19 02:58:51;;;;;;;2.90;1.77;;;13.40;71.30;;;;;;5074607;28;20470;-88
2023/10/19 03:01:24;;;;;;;1.90;1.40;;;13.40;71.60;;;;;;5075872;28;20437;-89
2023/10/19 03:03:54;;;;;;;2.40;1.37;;;13.40;71.60;;;;;;5084157;28;20487;-87
2023/10/19 03:06:22;;;;;;;2.57;1.50;;;13.40;71.20;;;;;;5072172;28;20894;-88
2023/10/19 03:08:57;;;;;;;2.23;1.83;;;13.40;70.70;;;;;;5071215;28;20525;-89
2023/10/19 03:11:27;;;;;;;2.40;1.73;;;13.40;71.00;;;;;;5074103;28;20811;-89
2023/10/19 03:13:57;;;;;;;1.67;1.57;;;13.40;71.70;;;;;;5069517;28;20450;-91
2023/10/19 03:16:26;;;;;;;2.00;1.80;;;13.40;72.60;;;;;;5073802;28;20451;-91
2023/10/19 03:18:55;;;;;;;2.27;1.80;;;13.40;72.30;;;;;;5063085;28;20465;-87
2023/10/19 03:21:26;;;;;;;3.00;1.50;;;13.40;72.30;;;;;;5073242;28;20431;-89
2023/10/19 03:23:56;;;;;;;1.87;1.60;;;13.40;70.80;;;;;;5072560;28;20465;-86
2023/10/19 03:26:30;;;;;;;1.60;1.50;;;13.40;73.80;;;;;;5063211;28;20441;-91
2023/10/19 03:29:03;;;;;;;1.53;1.40;;;13.40;74.70;;;;;;5080486;28;20992;-90
2023/10/19 03:31:32;;;;;;;2.33;1.53;;;13.40;72.20;;;;;;5071452;28;20419;-90
2023/10/19 03:34:05;;;;;;;2.20;1.60;;;13.40;73.80;;;;;;5082179;28;20457;-88
2023/10/19 03:36:33;;;;;;;2.23;1.47;;;13.40;72.20;;;;;;5067578;28;20467;-89
2023/10/19 03:39:11;;;;;;;2.03;1.50;;;13.40;70.60;;;;;;5075652;28;20508;-89
2023/10/19 03:41:44;;;;;;;2.10;1.50;;;13.40;71.20;;;;;;5067672;28;20433;-88
2023/10/19 03:44:19;;;;;;;1.73;1.33;;;13.40;72.10;;;;;;5073480;28;20535;-87
2023/10/19 03:47:00;;;;;;;2.40;1.57;;;13.40;70.90;;;;;;5072893;28;20421;-90
2023/10/19 03:49:38;;;;;;;1.80;1.70;;;13.40;70.50;;;;;;5063621;28;20547;-93
2023/10/19 03:52:21;;;;;;;1.90;1.60;;;13.40;72.00;;;;;;5070922;28;20488;-91
2023/10/19 03:54:50;;;;;;;1.37;1.20;;;13.40;71.10;;;;;;5080177;28;20460;-88
2023/10/19 03:57:24;;;;;;;1.53;1.27;;;13.40;70.40;;;;;;5057172;28;20828;-90
2023/10/19 03:59:56;;;;;;;1.87;1.60;;;13.40;71.70;;;;;;5059618;28;20509;-89
2023/10/19 04:02:29;;;;;;;1.73;1.30;;;13.40;72.10;;;;;;5073834;28;20441;-92
2023/10/19 04:04:58;;;;;;;2.17;1.30;;;13.40;71.70;;;;;;5067677;28;20984;-89
2023/10/19 04:07:27;;;;;;;1.40;1.23;;;13.40;71.30;;;;;;5063201;28;20474;-89
2023/10/19 04:10:09;;;;;;;1.40;1.20;;;13.40;71.30;;;;;;5052731;28;20999;-90
2023/10/19 04:12:41;;;;;;;2.03;1.40;;;13.40;71.30;;;;;;5075758;28;20455;-90
2023/10/19 04:15:14;;;;;;;2.73;1.40;;;13.40;71.80;;;;;;5073248;28;20457;-89
2023/10/19 04:17:42;;;;;;;1.73;1.60;;;13.40;71.00;;;;;;5076092;28;20474;-90
2023/10/19 04:20:28;;;;;;;2.30;1.77;;;13.50;71.80;;;;;;5072978;28;20453;-89
2023/10/19 04:22:58;;;;;;;1.40;1.20;;;13.40;72.20;;;;;;5070243;28;20461;-87
2023/10/19 04:25:27;;;;;;;1.90;1.07;;;13.40;73.40;;;;;;5074341;28;20992;-89
2023/10/19 04:27:56;;;;;;;1.70;1.40;;;13.40;73.30;;;;;;5078144;28;20434;-88
2023/10/19 04:30:26;;;;;;;1.67;1.20;;;13.40;74.30;;;;;;5071384;28;20435;-88
2023/10/19 04:32:57;;;;;;;1.33;1.07;;;13.40;75.20;;;;;;5067371;28;20517;-88
2023/10/19 04:35:29;;;;;;;1.80;1.10;;;13.40;74.00;;;;;;5062252;28;20562;-89
2023/10/19 04:37:59;;;;;;;2.17;1.20;;;13.40;75.20;;;;;;5072302;28;20490;-87
2023/10/19 04:40:28;;;;;;;2.13;1.40;;;13.40;74.60;;;;;;5068874;28;20456;-89
2023/10/19 04:42:57;;;;;;;1.80;1.40;;;13.40;74.10;;;;;;5079757;28;20430;-88
2023/10/19 04:45:26;;;;;;;2.20;1.30;;;13.40;74.00;;;;;;5075653;28;21249;-89
2023/10/19 04:47:54;;;;;;;1.43;1.10;;;13.40;75.30;;;;;;5066585;28;20432;-88
2023/10/19 04:50:23;;;;;;;2.27;1.30;;;13.40;74.20;;;;;;5064500;28;21012;-88
2023/10/19 04:52:51;;;;;;;1.70;1.27;;;13.40;74.80;;;;;;5072678;28;21026;-88
2023/10/19 04:55:20;;;;;;;1.70;1.27;;;13.40;75.20;;;;;;5086667;28;20442;-87
2023/10/19 04:57:48;;;;;;;1.93;1.20;;;13.40;75.40;;;;;;5078303;28;20476;-91
2023/10/19 05:00:20;;;;;;;4.90;1.23;;;13.40;76.70;;;;;;5066320;28;20439;-89
2023/10/19 05:02:51;;;;;;;1.80;1.10;;;13.40;75.00;;;;;;5078249;28;20463;-87
2023/10/19 05:05:20;;;;;;;1.57;1.10;;;13.40;73.60;;;;;;5076329;28;20461;-88
2023/10/19 05:07:48;;;;;;;1.60;1.20;;;13.40;73.20;;;;;;5067452;28;20559;-87
2023/10/19 05:10:17;;;;;;;1.77;1.23;;;13.40;74.00;;;;;;5075338;28;20445;-88
2023/10/19 05:12:45;;;;;;;1.40;1.10;;;13.40;72.10;;;;;;5080700;28;20519;-89
2023/10/19 05:15:15;;;;;;;1.57;1.30;;;13.40;73.00;;;;;;5073604;28;20715;-90
2023/10/19 05:17:43;;;;;;;1.60;1.10;;;13.40;73.50;;;;;;5072248;28;20494;-91
2023/10/19 05:20:13;;;;;;;1.40;1.10;;;13.40;72.30;;;;;;5080894;28;20465;-93
2023/10/19 05:22:41;;;;;;;2.90;1.47;;;13.40;71.90;;;;;;5071113;28;20446;-92
2023/10/19 05:25:09;;;;;;;1.50;1.20;;;13.40;72.90;;;;;;5091539;28;20460;-89
2023/10/19 05:27:39;;;;;;;1.87;1.30;;;13.40;72.10;;;;;;5071092;28;20430;-86
2023/10/19 05:30:10;;;;;;;2.07;1.47;;;13.40;72.20;;;;;;5053363;28;20460;-88
2023/10/19 05:32:38;;;;;;;2.13;1.00;;;13.40;71.20;;;;;;5051870;28;20403;-88
2023/10/19 05:35:07;;;;;;;2.13;1.60;;;13.40;70.80;;;;;;5051185;28;20471;-86
2023/10/19 05:37:36;;;;;;;1.27;1.17;;;13.40;71.50;;;;;;5052228;28;20487;-88
2023/10/19 05:40:12;;;;;;;3.70;1.80;;;13.40;70.50;;;;;;5050578;28;20498;-86
2023/10/19 05:42:40;;;;;;;1.43;1.03;;;13.40;70.30;;;;;;5078881;28;20795;-91
2023/10/19 05:45:12;;;;;;;1.57;1.10;;;13.40;71.30;;;;;;5091098;28;20979;-86
2023/10/19 05:47:41;;;;;;;1.80;1.30;;;13.40;71.00;;;;;;5091717;28;20441;-87
2023/10/19 05:50:13;;;;;;;1.27;1.00;;;13.40;70.20;;;;;;5091002;28;20453;-89
2023/10/19 05:52:43;;;;;;;1.40;1.07;;;13.40;70.80;;;;;;5090727;28;20451;-91
2023/10/19 05:55:12;;;;;;;2.47;1.03;;;13.40;71.00;;;;;;5090900;28;20445;-84
2023/10/19 05:57:41;;;;;;;1.67;1.40;;;13.50;72.00;;;;;;5091487;28;20898;-85
2023/10/19 06:00:13;;;;;;;1.60;1.10;;;13.40;71.70;;;;;;5090775;28;20550;-85
2023/10/19 06:02:44;;;;;;;1.63;1.53;;;13.40;71.80;;;;;;5093081;28;20468;-88
2023/10/19 06:05:15;;;;;;;1.50;1.10;;;13.50;71.00;;;;;;5091189;28;21003;-88
2023/10/19 06:07:46;;;;;;;1.40;1.10;;;13.40;73.00;;;;;;5091423;28;20468;-88
2023/10/19 06:10:18;;;;;;;1.20;0.80;;;13.50;73.70;;;;;;5086812;28;20458;-87
2023/10/19 06:12:47;;;;;;;2.40;1.20;;;13.40;73.80;;;;;;5070953;28;20608;-85
2023/10/19 06:15:17;;;;;;;2.27;1.80;;;13.40;72.50;;;;;;5070617;28;20757;-88
2023/10/19 06:17:45;;;;;;;1.57;1.30;;;13.40;71.40;;;;;;5072057;28;20828;-87
2023/10/19 06:20:23;;;;;;;1.90;1.57;;;13.40;72.00;;;;;;5070731;28;20438;-88
2023/10/19 06:22:55;;;;;;;2.20;1.40;;;13.40;71.90;;;;;;5069937;28;20477;-86
2023/10/19 06:25:25;;;;;;;1.03;0.80;;;13.40;71.60;;;;;;5070273;28;20549;-85
2023/10/19 06:27:56;;;;;;;1.17;1.07;;;13.40;71.00;;;;;;5070341;28;20433;-87
2023/10/19 06:30:26;;;;;;;1.43;1.33;;;13.40;71.40;;;;;;5070778;28;20466;-89
2023/10/19 06:32:56;;;;;;;1.20;1.10;;;13.40;70.10;;;;;;5069936;28;20469;-89
2023/10/19 06:35:25;;;;;;;1.23;1.10;;;13.50;70.10;;;;;;5070735;28;20832;-87
2023/10/19 06:37:56;;;;;;;3.50;1.30;;;13.40;70.10;;;;;;5069960;28;20468;-85
2023/10/19 06:40:26;;;;;;;1.30;0.97;;;13.50;70.60;;;;;;5070503;28;20498;-90
2023/10/19 06:42:56;;;;;;;1.73;1.10;;;13.50;70.50;;;;;;5069856;28;20453;-89
2023/10/19 06:45:26;;;;;;;1.77;1.07;;;13.40;71.00;;;;;;5070859;28;20452;-88
2023/10/19 06:47:54;;;;;;;2.03;1.43;;;13.50;71.30;;;;;;5070001;28;20534;-85
2023/10/19 06:50:25;;;;;;;1.50;1.10;;;13.40;72.80;;;;;;5071441;28;20476;-90
2023/10/19 06:52:55;;;;;;;1.50;1.10;;;13.50;72.40;;;;;;5069596;28;20443;-88
2023/10/19 06:55:23;;;;;;;1.40;1.30;;;13.50;72.40;;;;;;5070491;28;20442;-84
2023/10/19 06:57:55;;;;;;;1.50;1.00;;;13.50;72.30;;;;;;5079800;28;20549;-85
2023/10/19 07:00:26;;;;;;;2.30;1.10;;;13.50;70.80;;;;;;5090374;28;20417;-86
2023/10/19 07:02:56;;;;;;;1.27;1.03;;;13.50;71.10;;;;;;5090042;28;20776;-84
2023/10/19 07:05:25;;;;;;;1.93;1.10;;;13.50;72.60;;;;;;5090566;28;20488;-88
2023/10/19 07:07:56;;;;;;;1.60;1.20;;;13.40;72.60;;;;;;5091274;28;20443;-88
2023/10/19 07:10:25;;;;;;;2.20;1.20;;;13.50;71.30;;;;;;5090742;28;20401;-86
2023/10/19 07:12:54;;;;;;;3.63;1.30;;;13.50;70.50;;;;;;5075760;28;20518;-88
2023/10/19 07:15:25;;;;;;;1.30;1.00;;;13.50;73.30;;;;;;5069655;28;20443;-87
2023/10/19 07:17:54;;;;;;;2.00;1.03;;;13.50;72.60;;;;;;5068922;28;20486;-85
2023/10/19 07:20:26;;;;;;;1.10;0.97;;;13.40;71.20;;;;;;5069971;28;20427;-88
2023/10/19 07:23:00;;;;;;;1.50;1.00;;;13.50;70.70;;;;;;5069029;28;20423;-86
2023/10/19 07:25:29;;;;;;;1.93;1.50;;;13.40;70.30;;;;;;5069807;28;20511;-86
2023/10/19 07:27:59;;;;;;;2.50;1.20;;;13.50;73.70;;;;;;5069295;28;20415;-88
2023/10/19 07:30:28;;;;;;;2.40;1.63;;;13.40;73.70;;;;;;5069484;28;20429;-84
2023/10/19 07:32:58;;;;;;;2.10;1.63;;;13.50;71.40;;;;;;5069087;28;20470;-88
2023/10/19 07:35:27;;;;;;;2.17;1.20;;;13.50;73.00;;;;;;5054245;28;21023;-89
2023/10/19 07:37:57;;;;;;;1.30;1.20;;;13.50;71.70;;;;;;5055887;28;20450;-85
2023/10/19 07:40:25;;;;;;;1.47;1.27;;;13.50;71.60;;;;;;5069515;28;20424;-86
2023/10/19 07:42:54;;;;;;;2.13;1.30;;;13.50;72.40;;;;;;5069153;28;20462;-87
2023/10/19 07:45:23;;;;;;;2.23;1.20;;;13.50;72.30;;;;;;5069632;28;20455;-87
2023/10/19 07:47:51;;;;;;;1.40;1.00;;;13.50;71.20;;;;;;5055504;28;20580;-86
2023/10/19 07:50:22;;;;;;;1.67;1.17;;;13.50;71.40;;;;;;5049882;28;20416;-83
2023/10/19 07:52:53;;;;;;;1.70;1.30;;;13.50;71.30;;;;;;5049070;28;20439;-88
2023/10/19 07:55:23;;;;;;;1.20;1.00;;;13.50;70.70;;;;;;5033289;28;20467;-88
2023/10/19 07:57:53;;;;;;;1.40;0.70;;;13.50;69.80;;;;;;5036298;28;20449;-83
2023/10/19 08:00:23;;;;;;;1.20;1.10;;;13.50;69.90;;;;;;5049928;28;20470;-85
2023/10/19 08:02:53;;;;;;;1.50;1.00;;;13.50;70.00;;;;;;5049140;28;20473;-84
2023/10/19 08:05:22;;;;;;;1.30;1.00;;;13.50;71.20;;;;;;5049295;28;20799;-87
2023/10/19 08:07:50;;;;;;;2.60;1.47;;;13.50;71.80;;;;;;5053214;28;20423;-91
2023/10/19 08:10:20;;;;;;;1.67;1.33;;;13.50;71.00;;;;;;5069861;28;20426;-89
2023/10/19 08:12:51;;;;;;;2.30;0.97;;;13.50;70.70;;;;;;5069462;28;20924;-89
2023/10/19 08:15:21;;;;;;;1.50;1.00;;;13.50;70.10;;;;;;5072464;28;20452;-88
2023/10/19 08:17:51;;;;;;;3.60;1.20;;;13.50;70.30;;;;;;5076698;28;20462;-90
2023/10/19 08:20:31;;;;;;;1.30;1.00;;;13.50;71.20;;;;;;5078999;28;20476;-91
2023/10/19 08:23:02;;;;;;;1.40;1.03;;;13.50;70.60;;;;;;5060462;28;20770;-86
2023/10/19 08:25:31;;;;;;;1.33;1.00;;;13.50;70.20;;;;;;5053309;28;20852;-85
2023/10/19 08:28:04;;;;;;;1.50;1.03;;;13.50;69.40;;;;;;5072129;28;20913;-86
2023/10/19 08:30:34;;;;;;;1.53;1.20;;;13.60;69.30;;;;;;5086860;28;20429;-86
2023/10/19 08:33:02;;;;;;;1.13;0.90;;;13.60;69.40;;;;;;5082065;28;20437;-87
2023/10/19 08:35:30;;;;;;;1.33;0.90;;;13.60;69.60;;;;;;5092912;28;20558;-87
2023/10/19 08:37:59;;;;;;;1.20;1.07;;;13.60;69.50;;;;;;5092492;28;20436;-86
2023/10/19 08:40:27;;;;;;;1.90;0.87;;;13.60;69.40;;;;;;5074943;28;20422;-87
2023/10/19 08:42:56;;;;;;;1.83;0.90;;;13.60;69.30;;;;;;5075990;28;20847;-89
2023/10/19 08:45:26;;;;;;;1.30;0.80;;;13.60;69.00;;;;;;5093054;28;20441;-86
2023/10/19 08:47:57;;;;;;;3.23;1.17;;;13.60;68.80;;;;;;5092123;28;20437;-86
2023/10/19 08:50:28;;;;;;;1.50;0.87;;;13.60;68.90;;;;;;5075576;28;20426;-86
2023/10/19 08:52:58;;;;;;;1.10;0.80;;;13.70;68.80;;;;;;5062082;28;20796;-83
2023/10/19 08:55:27;;;;;;;1.47;1.03;;;13.60;68.50;;;;;;5072448;28;20534;-84
2023/10/19 08:58:16;;;;;;;1.20;0.97;;;13.70;68.70;;;;;;5072039;28;20476;-86
2023/10/19 09:00:51;;;;;;;1.47;1.10;;;13.70;68.50;;;;;;5073065;28;20431;-87
2023/10/19 09:03:21;;;;;;;1.20;1.10;;;13.70;68.60;;;;;;5058471;28;20493;-90
2023/10/19 09:05:50;;;;;;;1.20;1.00;;;13.70;68.60;;;;;;5052841;28;20449;-89
2023/10/19 09:08:21;;;;;;;1.27;0.90;;;13.70;68.50;;;;;;5052204;28;20470;-85
2023/10/19 09:10:53;;;;;;;2.27;1.40;;;13.70;68.60;;;;;;5053134;28;20904;-86
2023/10/19 09:13:22;;;;;;;1.43;1.00;;;13.70;68.50;;;;;;5067070;28;20457;-87
2023/10/19 09:15:55;;;;;;;1.50;1.13;;;13.70;68.60;;;;;;5074039;28;20437;-87
2023/10/19 09:18:27;;;;;;;1.33;0.87;;;13.70;68.60;;;;;;5086478;28;20602;-85
2023/10/19 09:21:02;;;;;;;1.10;0.90;;;13.70;68.80;;;;;;5081247;28;20419;-87
2023/10/19 09:23:31;;;;;;;1.60;1.10;;;13.70;68.60;;;;;;5056706;28;20474;-84
2023/10/19 09:26:02;;;;;;;1.10;0.90;;;13.70;68.60;;;;;;5051309;28;20489;-83
2023/10/19 09:28:33;;;;;;;1.53;1.00;;;13.70;68.70;;;;;;5058016;28;20482;-85
2023/10/19 09:31:04;;;;;;;1.47;0.80;;;13.70;69.20;;;;;;5071947;28;20434;-86
2023/10/19 09:33:34;;;;;;;1.70;0.87;;;13.70;68.70;;;;;;5067404;28;20790;-86
2023/10/19 09:36:12;;;;;;;1.43;0.90;;;13.70;68.70;;;;;;5071721;28;20452;-87
2023/10/19 09:38:44;;;;;;;1.10;0.80;;;13.80;68.70;;;;;;5067066;28;20495;-88
2023/10/19 09:41:14;;;;;;;1.30;1.20;;;13.70;68.70;;;;;;5075689;28;20430;-88
2023/10/19 09:43:44;;;;;;;1.97;1.17;;;13.70;68.50;;;;;;5062707;28;20566;-90
2023/10/19 09:46:22;;;;;;;0.90;0.77;;;13.70;68.60;;;;;;5086233;28;20450;-88
2023/10/19 09:48:51;;;;;;;1.00;0.70;;;13.70;68.60;;;;;;5078996;28;20461;-88
2023/10/19 09:51:20;;;;;;;1.90;1.00;;;13.70;68.70;;;;;;5063071;28;20415;-88
2023/10/19 09:53:54;;;;;;;2.93;1.00;;;13.80;68.70;;;;;;5076537;28;20458;-85
2023/10/19 09:56:27;;;;;;;1.30;1.00;;;13.80;69.10;;;;;;5076778;28;20450;-86
2023/10/19 09:59:01;;;;;;;3.37;1.10;;;13.80;69.10;;;;;;5079997;28;21000;-89
2023/10/19 10:02:04;;;;;;;1.47;0.87;;;13.80;69.20;;;;;;5064386;28;20430;-88
2023/10/19 10:04:35;;;;;;;2.30;1.00;;;13.80;69.20;;;;;;5083448;28;20539;-89
2023/10/19 10:07:06;;;;;;;1.23;0.83;;;13.80;69.10;;;;;;5065947;28;20569;-88
2023/10/19 10:09:39;;;;;;;1.30;1.20;;;13.80;69.00;;;;;;5052936;28;20458;-89
2023/10/19 10:12:19;;;;;;;1.97;1.10;;;13.80;69.10;;;;;;5071238;28;20439;-87
2023/10/19 10:14:58;;;;;;;2.10;0.90;;;13.80;69.40;;;;;;5079212;28;20677;-86
2023/10/19 10:17:28;;;;;;;1.77;1.00;;;13.80;69.10;;;;;;5064630;28;20469;-87
2023/10/19 10:20:13;;;;;;;1.30;0.77;;;13.80;69.00;;;;;;5064918;28;20779;-85
2023/10/19 10:22:41;;;;;;;1.17;0.90;;;13.80;69.00;;;;;;5067128;28;20789;-84
2023/10/19 10:25:26;;;;;;;1.47;0.87;;;13.80;69.00;;;;;;5082408;28;20534;-87
2023/10/19 10:27:56;;;;;;;1.70;1.03;;;13.80;69.40;;;;;;5070338;28;20453;-91
2023/10/19 10:30:25;;;;;;;1.50;0.90;;;13.80;69.30;;;;;;5069918;28;20427;-87
2023/10/19 10:32:56;;;;;;;1.10;0.90;;;13.80;69.20;;;;;;5069702;28;20430;-88
2023/10/19 10:35:58;;;;;;;1.37;0.90;;;13.80;70.60;;;;;;5065678;28;20460;-87
2023/10/19 10:38:35;;;;;;;1.10;0.70;;;13.80;69.10;;;;;;4998084;28;20476;-87
2023/10/19 10:41:03;;;;;;;1.30;1.20;;;13.80;69.50;;;;;;4988876;28;20493;-90
2023/10/19 10:43:32;;;;;;;1.27;1.10;;;13.80;69.20;;;;;;5033683;28;20465;-87
2023/10/19 10:46:05;;;;;;;3.30;0.80;;;13.80;69.40;;;;;;5070670;28;20704;-88
2023/10/19 10:48:36;;;;;;;1.70;1.03;;;13.90;69.40;;;;;;5070024;28;20844;-89
2023/10/19 10:51:04;;;;;;;1.10;0.97;;;13.80;69.40;;;;;;5074414;28;20902;-87
2023/10/19 10:53:32;;;;;;;1.67;1.17;;;13.80;69.20;;;;;;5062696;28;21022;-90
2023/10/19 10:56:01;;;;;;;1.67;0.87;;;13.90;69.20;;;;;;5069510;28;20457;-88
2023/10/19 10:58:30;;;;;;;1.40;0.97;;;13.80;69.20;;;;;;5069813;28;20829;-86
2023/10/19 11:00:58;;;;;;;2.73;1.37;;;13.80;69.60;;;;;;5070675;28;20738;-88
2023/10/19 11:03:29;;;;;;;1.30;0.90;;;13.80;69.30;;;;;;5069832;28;20521;-88
2023/10/19 11:06:07;;;;;;;1.70;0.90;;;13.80;69.40;;;;;;5070962;28;20473;-87
2023/10/19 11:08:37;;;;;;;1.83;1.10;;;13.80;69.20;;;;;;5070709;28;20847;-89
2023/10/19 11:11:10;;;;;;;1.10;0.90;;;13.80;70.00;;;;;;5081428;28;20429;-86
2023/10/19 11:13:39;;;;;;;1.63;1.20;;;13.80;69.40;;;;;;5064916;28;20466;-90
2023/10/19 11:16:09;;;;;;;1.20;0.77;;;13.80;69.70;;;;;;5070385;28;20447;-92
2023/10/19 11:18:40;;;;;;;1.50;0.97;;;13.80;69.40;;;;;;5083690;28;20455;-91
2023/10/19 11:21:11;;;;;;;2.17;1.20;;;13.80;69.80;;;;;;5058074;28;20447;-91
2023/10/19 11:23:42;;;;;;;1.10;0.97;;;13.90;69.70;;;;;;5077750;28;20828;-85
2023/10/19 11:26:11;;;;;;;1.53;1.20;;;13.90;69.60;;;;;;5068867;28;20497;-85
2023/10/19 11:28:47;;;;;;;2.60;0.83;;;13.90;70.00;;;;;;5070184;28;21153;-89
2023/10/19 11:31:16;;;;;;;1.37;1.10;;;13.90;70.30;;;;;;5058688;28;20423;-87
2023/10/19 11:33:48;;;;;;;1.63;0.73;;;13.90;70.00;;;;;;5060026;28;20462;-89
2023/10/19 11:36:20;;;;;;;1.27;0.90;;;13.90;69.80;;;;;;5044829;28;20530;-85
2023/10/19 11:38:49;;;;;;;1.50;0.90;;;13.80;69.70;;;;;;5055121;28;20467;-83
2023/10/19 11:41:18;;;;;;;2.87;1.37;;;13.90;70.40;;;;;;5064654;28;20464;-89
2023/10/19 11:43:48;;;;;;;2.60;1.17;;;13.90;70.00;;;;;;5078226;28;20472;-88
2023/10/19 11:46:18;;;;;;;1.83;0.80;;;13.90;71.60;;;;;;5069708;28;20450;-86
2023/10/19 11:48:46;;;;;;;3.07;0.77;;;13.90;70.20;;;;;;5079920;28;21038;-88
2023/10/19 11:51:15;;;;;;;3.13;1.10;;;13.90;70.50;;;;;;5071035;28;20631;-87
2023/10/19 11:53:45;;;;;;;2.03;0.90;;;13.90;70.50;;;;;;5068729;28;20462;-89
2023/10/19 11:56:16;;;;;;;3.43;1.37;;;13.90;71.70;;;;;;5070377;28;20446;-85
2023/10/19 11:58:46;;;;;;;1.00;0.87;;;13.90;70.40;;;;;;5055733;28;20548;-85
2023/10/19 12:01:16;;;;;;;1.30;0.97;;;13.90;70.60;;;;;;5053668;28;20973;-88
2023/10/19 12:03:48;;;;;;;3.10;1.10;;;13.90;70.30;;;;;;5052899;28;20849;-86
2023/10/19 12:06:19;;;;;;;1.60;0.90;;;13.90;71.50;;;;;;5057081;28;20505;-83
2023/10/19 12:09:14;;;;;;;1.97;0.83;;;13.90;70.80;;;;;;5056279;28;20474;-86
2023/10/19 12:11:44;;;;;;;1.80;1.10;;;13.90;71.10;;;;;;5080756;28;20465;-84
2023/10/19 12:14:15;;;;;;;1.20;0.63;;;13.90;70.20;;;;;;5088396;28;20555;-88
2023/10/19 12:16:45;;;;;;;1.60;0.93;;;13.90;70.80;;;;;;5055821;28;20485;-88
2023/10/19 12:19:17;;;;;;;1.40;0.90;;;13.90;70.60;;;;;;5064016;28;20544;-87
2023/10/19 12:21:45;;;;;;;1.60;0.80;;;13.90;70.60;;;;;;5065119;28;20466;-87
2023/10/19 12:24:15;;;;;;;1.40;0.87;;;13.90;70.40;;;;;;5051641;28;20465;-87
2023/10/19 12:26:44;;;;;;;1.10;0.80;;;13.90;70.50;;;;;;5058854;28;20962;-86
2023/10/19 12:29:17;;;;;;;1.93;1.27;;;13.90;71.90;;;;;;5069956;28;20566;-86
2023/10/19 12:31:46;;;;;;;1.80;1.10;;;13.90;71.30;;;;;;5072272;28;20531;-84
2023/10/19 12:34:16;;;;;;;2.47;1.10;;;14.00;71.00;;;;;;5065962;28;20552;-85
2023/10/19 12:36:46;;;;;;;2.53;1.07;;;13.90;70.50;;;;;;5075739;28;20961;-87
2023/10/19 12:39:35;;;;;;;1.90;0.93;;;14.00;70.90;;;;;;5054305;28;20463;-86
2023/10/19 12:42:04;;;;;;;1.77;1.10;;;13.90;70.50;;;;;;5073492;28;20492;-87
2023/10/19 12:44:39;;;;;;;2.27;1.00;;;13.90;70.50;;;;;;5053839;28;20521;-85
2023/10/19 12:47:09;;;;;;;4.37;1.23;;;13.90;71.50;;;;;;5074381;28;20485;-86
2023/10/19 12:49:39;;;;;;;1.80;1.10;;;14.00;71.30;;;;;;5073488;28;20459;-85
2023/10/19 12:52:08;;;;;;;1.27;0.87;;;14.00;71.00;;;;;;5062404;28;20500;-86
2023/10/19 12:54:37;;;;;;;2.13;1.10;;;14.00;70.90;;;;;;5076496;28;21032;-85
2023/10/19 12:57:07;;;;;;;1.30;0.80;;;14.00;71.30;;;;;;5065980;28;20449;-88
2023/10/19 12:59:37;;;;;;;1.13;0.73;;;14.00;71.10;;;;;;5060138;28;20459;-87
2023/10/19 13:02:08;;;;;;;1.53;0.60;;;14.00;70.90;;;;;;5071758;28;20451;-87
2023/10/19 13:04:37;;;;;;;1.67;0.90;;;14.00;71.00;;;;;;5065736;28;20553;-87
2023/10/19 13:07:07;;;;;;;2.30;1.23;;;14.00;70.90;;;;;;5066226;28;20450;-87
2023/10/19 13:09:36;;;;;;;4.70;1.33;;;14.00;71.00;;;;;;5071387;28;20916;-91
2023/10/19 13:12:07;;;;;;;2.27;0.80;;;14.00;71.70;;;;;;5077957;28;21058;-88